Time;durP1;ratioP1;P1;durP2;ratioP2;P2;SDS_P1;SDS_P2;PMS_P1;PMS_P2;Temp;Humidity;BMP_temperature;BMP_pressure;BME280_temperature;BME280_humidity;BME280_pressure;Samples;Min_cycle;Max_cycle;Signal;HPM_P1;HPM_P2
2021/10/10 00:01:05;;;;;;;9.15;6.82;;;;;;;20.53;47.41;102704.31;4998266;28;20042;-60
2021/10/10 00:03:31;;;;;;;9.75;7.18;;;;;;;20.53;47.38;102706.13;4999179;28;20049;-60
2021/10/10 00:05:56;;;;;;;9.15;6.93;;;;;;;20.53;47.27;102706.97;4999043;28;20400;-59
2021/10/10 00:08:22;;;;;;;8.63;6.70;;;;;;;20.52;47.02;102712.34;4997915;28;20034;-60
2021/10/10 00:10:50;;;;;;;9.65;6.78;;;;;;;20.49;47.26;102718.72;4999136;28;20033;-58
2021/10/10 00:13:15;;;;;;;10.75;7.45;;;;;;;20.47;47.32;102708.22;4997784;28;20048;-58
2021/10/10 00:15:41;;;;;;;10.63;7.30;;;;;;;20.47;47.38;102712.63;4999057;28;20120;-59
2021/10/10 00:18:06;;;;;;;11.63;7.05;;;;;;;20.46;47.15;102716.25;4994922;28;20030;-60
2021/10/10 00:20:32;;;;;;;8.77;6.63;;;;;;;20.45;47.23;102711.88;4994523;28;20626;-59
2021/10/10 00:23:01;;;;;;;10.65;6.75;;;;;;;20.42;47.17;102710.28;4995267;28;20045;-59
2021/10/10 00:25:26;;;;;;;9.82;6.53;;;;;;;20.44;47.07;102707.53;4995367;28;20026;-59
2021/10/10 00:27:51;;;;;;;8.75;6.40;;;;;;;20.43;47.03;102706.69;4994810;28;20489;-59
2021/10/10 00:30:19;;;;;;;9.30;6.65;;;;;;;20.42;46.89;102704.97;4995523;28;20045;-60
2021/10/10 00:32:44;;;;;;;8.02;6.40;;;;;;;20.41;47.08;102705.06;4995705;28;20096;-59
2021/10/10 00:35:14;;;;;;;8.82;6.63;;;;;;;20.40;47.00;102701.59;4994586;28;20026;-59
2021/10/10 00:37:40;;;;;;;9.32;6.90;;;;;;;20.39;46.82;102701.69;4995262;28;20031;-60
2021/10/10 00:40:07;;;;;;;9.68;7.30;;;;;;;20.37;46.93;102698.28;4995440;28;20037;-58
2021/10/10 00:42:32;;;;;;;8.60;6.35;;;;;;;20.36;47.04;102699.22;4994632;28;20049;-59
2021/10/10 00:44:57;;;;;;;8.95;6.13;;;;;;;20.35;46.91;102697.53;4995392;28;20116;-59
2021/10/10 00:47:23;;;;;;;10.05;6.90;;;;;;;20.33;46.88;102696.75;4994927;28;20093;-60
2021/10/10 00:49:49;;;;;;;8.13;6.40;;;;;;;20.30;46.89;102690.72;4994292;28;20027;-59
2021/10/10 00:52:16;;;;;;;8.32;6.78;;;;;;;20.29;46.71;102685.50;4994604;28;20108;-61
2021/10/10 00:54:45;;;;;;;9.02;6.93;;;;;;;20.27;46.68;102677.66;4995003;28;20049;-60
2021/10/10 00:57:11;;;;;;;8.43;6.60;;;;;;;20.26;46.79;102678.59;4993813;28;20394;-60
2021/10/10 00:59:38;;;;;;;8.85;6.72;;;;;;;20.24;46.66;102675.19;4995025;28;20037;-60
2021/10/10 01:02:04;;;;;;;9.43;6.82;;;;;;;20.22;46.54;102669.16;4994577;28;20037;-60
2021/10/10 01:04:35;;;;;;;9.30;6.47;;;;;;;20.24;46.71;102669.06;4994282;28;20027;-60
2021/10/10 01:07:01;;;;;;;8.82;6.82;;;;;;;20.21;46.87;102672.75;4995069;28;20022;-60
2021/10/10 01:09:27;;;;;;;8.40;6.60;;;;;;;20.20;46.74;102673.72;4994378;28;20034;-60
2021/10/10 01:11:53;;;;;;;9.60;6.93;;;;;;;20.19;46.83;102673.78;4994769;28;20035;-60
2021/10/10 01:14:18;;;;;;;10.18;6.95;;;;;;;20.18;46.63;102680.03;4994617;28;20038;-59
2021/10/10 01:16:44;;;;;;;8.68;6.28;;;;;;;20.17;46.61;102673.03;4993955;28;20588;-59
2021/10/10 01:19:10;;;;;;;9.48;6.60;;;;;;;20.17;46.59;102675.66;4994430;28;20042;-59
2021/10/10 01:21:35;;;;;;;8.57;6.32;;;;;;;20.16;46.48;102684.56;4994818;28;20037;-59
2021/10/10 01:24:03;;;;;;;9.37;6.30;;;;;;;20.15;46.64;102680.22;4993647;28;20053;-58
2021/10/10 01:26:29;;;;;;;8.65;6.32;;;;;;;20.13;46.40;102680.31;4994512;28;20272;-59
2021/10/10 01:28:54;;;;;;;8.38;6.43;;;;;;;20.11;46.61;102674.25;4994163;28;20098;-60
2021/10/10 01:31:19;;;;;;;8.73;6.27;;;;;;;20.09;46.45;102681.41;4993159;28;20478;-59
2021/10/10 01:33:45;;;;;;;10.10;6.55;;;;;;;20.09;46.55;102684.06;4994036;28;20764;-61
2021/10/10 01:36:12;;;;;;;8.80;6.25;;;;;;;20.07;46.47;102681.50;4994100;28;20470;-60
2021/10/10 01:38:50;;;;;;;7.72;6.03;;;;;;;20.07;46.46;102678.03;4993911;28;20076;-59
2021/10/10 01:41:16;;;;;;;10.10;6.43;;;;;;;20.06;46.23;102676.31;4994144;28;20062;-60
2021/10/10 01:43:41;;;;;;;8.40;6.40;;;;;;;20.05;46.37;102671.97;4994133;28;20066;-60
2021/10/10 01:46:07;;;;;;;8.82;6.20;;;;;;;20.05;46.30;102675.47;4992724;28;20034;-60
2021/10/10 01:48:33;;;;;;;9.15;6.20;;;;;;;20.03;46.22;102669.44;4994144;28;20037;-59
2021/10/10 01:51:00;;;;;;;8.32;6.10;;;;;;;20.02;46.30;102670.38;4993791;28;20545;-59
2021/10/10 01:53:25;;;;;;;8.05;6.00;;;;;;;20.01;46.47;102673.09;4992591;28;20502;-59
2021/10/10 01:55:50;;;;;;;7.55;5.55;;;;;;;19.99;46.40;102665.25;4993913;28;20033;-61
2021/10/10 01:58:16;;;;;;;7.32;5.95;;;;;;;19.98;46.15;102657.41;4993297;28;20042;-59
2021/10/10 02:00:41;;;;;;;7.80;5.57;;;;;;;19.96;46.07;102657.50;4992719;28;20037;-60
2021/10/10 02:03:06;;;;;;;8.90;6.30;;;;;;;19.95;46.06;102653.16;4993370;28;20076;-59
2021/10/10 02:05:32;;;;;;;8.67;5.87;;;;;;;19.93;46.24;102653.25;4993807;28;20524;-61
2021/10/10 02:07:57;;;;;;;9.02;5.80;;;;;;;19.92;46.24;102659.50;4992828;28;20672;-58
2021/10/10 02:10:23;;;;;;;6.85;5.28;;;;;;;19.93;46.23;102655.03;4993271;28;20370;-59
2021/10/10 02:12:49;;;;;;;8.00;5.90;;;;;;;19.93;45.93;102657.69;4992748;28;20022;-60
2021/10/10 02:15:15;;;;;;;7.68;5.88;;;;;;;19.92;46.02;102653.34;4993086;28;20022;-59
2021/10/10 02:17:41;;;;;;;7.90;5.80;;;;;;;19.91;45.98;102652.47;4993251;28;20446;-58
2021/10/10 02:20:08;;;;;;;7.60;5.70;;;;;;;19.89;46.04;102650.91;4992454;28;20058;-59
2021/10/10 02:22:33;;;;;;;6.45;5.05;;;;;;;19.88;45.92;102647.38;4993115;28;20125;-59
2021/10/10 02:24:59;;;;;;;7.38;5.88;;;;;;;19.88;46.06;102642.09;4993360;28;20053;-59
2021/10/10 02:27:25;;;;;;;7.97;5.53;;;;;;;19.87;45.91;102639.56;4992139;28;20018;-59
2021/10/10 02:29:51;;;;;;;7.50;5.50;;;;;;;19.86;45.99;102633.41;4993197;28;20478;-59
2021/10/10 02:32:16;;;;;;;8.15;5.60;;;;;;;19.85;46.00;102636.13;4993010;28;20467;-59
2021/10/10 02:34:42;;;;;;;6.72;5.30;;;;;;;19.84;46.16;102637.94;4992528;28;20113;-59
2021/10/10 02:37:11;;;;;;;7.65;5.63;;;;;;;19.83;45.66;102627.44;4992905;28;20031;-60
2021/10/10 02:39:36;;;;;;;7.53;5.68;;;;;;;19.82;46.03;102633.66;4993009;28;20026;-60
2021/10/10 02:42:03;;;;;;;7.47;4.97;;;;;;;19.82;45.89;102631.91;4991903;28;20030;-58
2021/10/10 02:44:28;;;;;;;7.78;5.60;;;;;;;19.81;45.97;102634.63;4992892;28;20414;-59
2021/10/10 02:46:54;;;;;;;7.78;5.50;;;;;;;19.79;45.62;102632.09;4993027;28;20041;-60
2021/10/10 02:49:19;;;;;;;8.07;5.53;;;;;;;19.79;45.95;102623.28;4991870;28;20096;-59
2021/10/10 02:51:51;;;;;;;7.00;5.03;;;;;;;19.78;45.86;102632.16;4992862;28;20034;-59
2021/10/10 02:54:16;;;;;;;6.72;4.97;;;;;;;19.78;45.68;102633.00;4992549;28;20022;-59
2021/10/10 02:56:41;;;;;;;7.50;5.17;;;;;;;19.77;45.87;102627.81;4991858;28;20026;-59
2021/10/10 02:59:07;;;;;;;7.00;5.20;;;;;;;19.75;45.70;102628.72;4992383;28;20272;-59
2021/10/10 03:01:32;;;;;;;6.57;5.00;;;;;;;19.75;45.84;102619.94;4992943;28;20060;-59
2021/10/10 03:03:57;;;;;;;6.90;5.15;;;;;;;19.74;45.68;102623.50;4991940;28;20291;-59
2021/10/10 03:06:23;;;;;;;6.40;5.13;;;;;;;19.73;45.52;102624.47;4992663;28;20057;-59
2021/10/10 03:08:48;;;;;;;7.38;4.93;;;;;;;19.72;45.82;102620.97;4992954;28;20299;-59
2021/10/10 03:11:13;;;;;;;6.47;4.78;;;;;;;19.72;45.48;102625.41;4991735;28;20486;-59
2021/10/10 03:13:39;;;;;;;7.22;5.15;;;;;;;19.71;45.73;102621.94;4992540;28;20386;-59
2021/10/10 03:16:04;;;;;;;6.95;5.03;;;;;;;19.69;45.61;102622.94;4991759;28;20438;-59
2021/10/10 03:18:30;;;;;;;7.00;5.20;;;;;;;19.68;45.61;102621.28;4992871;28;20048;-59
2021/10/10 03:20:55;;;;;;;6.45;4.93;;;;;;;19.68;45.30;102626.56;4993399;28;20470;-58
2021/10/10 03:23:21;;;;;;;6.43;4.65;;;;;;;19.66;45.44;102625.78;4992407;28;20038;-59
2021/10/10 03:25:46;;;;;;;6.70;5.20;;;;;;;19.66;45.62;102620.47;4993088;28;20037;-58
2021/10/10 03:28:11;;;;;;;6.97;5.23;;;;;;;19.66;45.52;102620.47;4992627;28;20113;-58
2021/10/10 03:30:37;;;;;;;6.45;4.88;;;;;;;19.64;45.25;102625.88;4992265;28;20130;-59
2021/10/10 03:33:02;;;;;;;6.07;4.53;;;;;;;19.64;45.23;102625.88;4992480;28;20054;-60
2021/10/10 03:35:28;;;;;;;6.47;4.70;;;;;;;19.63;45.65;102625.97;4993015;28;20033;-59
2021/10/10 03:37:53;;;;;;;6.47;4.85;;;;;;;19.62;45.46;102625.13;4991654;28;20022;-60
2021/10/10 03:40:18;;;;;;;7.20;5.00;;;;;;;19.61;45.32;102628.69;4992350;28;20046;-59
2021/10/10 03:42:44;;;;;;;6.35;5.00;;;;;;;19.60;45.29;102621.72;4992463;28;20027;-59
2021/10/10 03:45:10;;;;;;;6.25;5.00;;;;;;;19.61;45.15;102622.56;4991156;28;20030;-59
2021/10/10 03:47:36;;;;;;;7.70;5.20;;;;;;;19.59;45.56;102627.94;4992272;28;20450;-59
2021/10/10 03:50:02;;;;;;;6.60;5.10;;;;;;;19.58;45.48;102627.09;4992432;28;20050;-59
2021/10/10 03:52:27;;;;;;;6.38;4.70;;;;;;;19.58;45.41;102629.75;4992042;28;20042;-59
2021/10/10 03:57:35;;;;;;;6.68;4.55;;;;;;;19.56;45.23;102625.47;4996008;28;20268;-60
2021/10/10 04:00:06;;;;;;;8.38;4.90;;;;;;;19.55;45.80;102623.75;4995258;28;20471;-59
2021/10/10 04:02:31;;;;;;;6.43;4.70;;;;;;;19.53;45.08;102621.22;4996050;28;20053;-60
2021/10/10 04:04:57;;;;;;;7.68;5.18;;;;;;;19.54;45.29;102628.22;4995993;28;20327;-59
2021/10/10 04:07:23;;;;;;;7.15;5.00;;;;;;;19.52;45.18;102622.16;4994857;28;20038;-59
2021/10/10 04:09:51;;;;;;;6.57;4.82;;;;;;;19.52;45.00;102619.53;4995616;28;20585;-60
2021/10/10 04:12:16;;;;;;;6.30;4.88;;;;;;;19.50;45.13;102618.78;4994789;28;20023;-60
2021/10/10 04:14:42;;;;;;;7.25;4.95;;;;;;;19.49;45.24;102619.72;4995628;28;20031;-59
2021/10/10 04:17:10;;;;;;;6.20;4.45;;;;;;;19.48;45.11;102617.16;4995765;28;20023;-60
2021/10/10 04:19:35;;;;;;;6.75;4.93;;;;;;;19.49;45.29;102621.50;4995329;28;20266;-59
2021/10/10 04:22:00;;;;;;;6.90;5.00;;;;;;;19.47;45.35;102623.38;4995870;28;20125;-59
2021/10/10 04:24:26;;;;;;;6.78;4.95;;;;;;;19.46;45.16;102625.19;4995345;28;20045;-59
2021/10/10 04:26:54;;;;;;;6.50;4.57;;;;;;;19.47;45.23;102628.66;4995284;28;20065;-59
2021/10/10 04:29:20;;;;;;;5.85;4.55;;;;;;;19.45;45.21;102623.47;4995425;28;20030;-58
2021/10/10 04:31:45;;;;;;;7.43;4.85;;;;;;;19.46;45.23;102626.97;4995690;28;20109;-58
2021/10/10 04:34:11;;;;;;;7.10;4.68;;;;;;;19.45;45.14;102622.63;4994521;28;20053;-59
2021/10/10 04:36:37;;;;;;;6.68;4.82;;;;;;;19.45;45.15;102622.63;4995510;28;20045;-60
2021/10/10 04:39:06;;;;;;;6.13;4.50;;;;;;;19.44;45.20;102612.97;4994995;28;20475;-58
2021/10/10 04:41:31;;;;;;;6.68;5.18;;;;;;;19.44;44.94;102616.50;4994691;28;20155;-60
2021/10/10 04:43:56;;;;;;;6.30;4.67;;;;;;;19.43;45.00;102620.06;4995526;28;20026;-59
2021/10/10 04:46:21;;;;;;;6.27;4.40;;;;;;;19.42;45.01;102612.22;4994960;28;20327;-61
2021/10/10 04:48:47;;;;;;;6.23;4.70;;;;;;;19.44;45.18;102619.13;4994375;28;20276;-59
2021/10/10 04:51:12;;;;;;;6.00;4.40;;;;;;;19.48;45.33;102619.78;4994935;28;20126;-59
2021/10/10 04:53:37;;;;;;;5.83;4.53;;;;;;;19.51;45.11;102620.47;4994980;28;20042;-60
2021/10/10 04:56:07;;;;;;;5.88;4.30;;;;;;;19.55;45.15;102619.34;4993943;28;20761;-59
2021/10/10 04:58:32;;;;;;;6.07;3.95;;;;;;;19.59;44.84;102622.66;4995011;28;20033;-58
2021/10/10 05:00:57;;;;;;;6.25;4.45;;;;;;;19.62;44.76;102629.56;4995218;28;20105;-59
2021/10/10 05:03:26;;;;;;;5.82;4.03;;;;;;;19.65;44.76;102626.75;4993571;28;20029;-59
2021/10/10 05:05:51;;;;;;;6.07;4.35;;;;;;;19.68;44.42;102626.56;4994880;28;20026;-58
2021/10/10 05:08:17;;;;;;;5.95;4.38;;;;;;;19.68;44.65;102627.41;4994239;28;20085;-59
2021/10/10 05:10:45;;;;;;;5.55;4.22;;;;;;;19.70;44.67;102620.22;4994213;28;20088;-59
2021/10/10 05:13:10;;;;;;;6.18;4.28;;;;;;;19.70;44.30;102620.22;4994308;28;20551;-60
2021/10/10 05:15:36;;;;;;;5.28;3.95;;;;;;;19.70;44.59;102620.22;4994103;28;20027;-59
2021/10/10 05:18:01;;;;;;;5.07;3.63;;;;;;;19.69;44.35;102623.81;4994543;28;20025;-60
2021/10/10 05:20:27;;;;;;;5.30;3.80;;;;;;;19.69;44.27;102618.53;4994159;28;20045;-60
2021/10/10 05:22:52;;;;;;;5.70;3.93;;;;;;;19.69;44.38;102621.19;4993613;28;20070;-59
2021/10/10 05:25:17;;;;;;;5.72;4.10;;;;;;;19.70;44.52;102628.16;4994396;28;20779;-59
2021/10/10 05:27:43;;;;;;;5.20;3.63;;;;;;;19.73;44.64;102625.31;4994642;28;20478;-60
2021/10/10 05:30:08;;;;;;;4.80;3.35;;;;;;;19.80;45.38;102620.53;4993390;28;20030;-60
2021/10/10 05:32:34;;;;;;;5.75;3.58;;;;;;;19.87;46.20;102626.34;4994463;28;20074;-60
2021/10/10 05:34:59;;;;;;;5.60;3.78;;;;;;;19.94;46.31;102620.53;4994439;28;20432;-60
2021/10/10 05:37:25;;;;;;;5.28;3.75;;;;;;;20.02;46.43;102617.44;4993270;28;20037;-60
2021/10/10 05:39:51;;;;;;;6.45;3.70;;;;;;;20.09;46.31;102632.00;4994487;28;20043;-58
2021/10/10 05:42:16;;;;;;;5.10;3.63;;;;;;;20.20;46.12;102627.84;4994006;28;20482;-59
2021/10/10 05:44:42;;;;;;;5.72;3.90;;;;;;;20.27;45.86;102623.88;4993556;28;20053;-60
2021/10/10 05:47:11;;;;;;;4.72;3.17;;;;;;;20.33;45.99;102623.50;4994026;28;20475;-60
2021/10/10 05:49:39;;;;;;;5.03;3.45;;;;;;;20.37;45.62;102627.63;4994236;28;20142;-60
2021/10/10 05:52:05;;;;;;;5.25;3.25;;;;;;;20.41;45.93;102629.16;4992742;28;20046;-59
2021/10/10 05:54:36;;;;;;;5.50;3.67;;;;;;;20.47;45.77;102635.84;4994230;28;20046;-59
2021/10/10 05:57:05;;;;;;;5.03;3.30;;;;;;;20.55;45.30;102638.00;4993939;28;20034;-60
2021/10/10 05:59:33;;;;;;;5.18;3.00;;;;;;;20.61;45.57;102642.91;4993354;28;20457;-61
2021/10/10 06:01:59;;;;;;;4.50;2.78;;;;;;;20.67;45.07;102642.56;4994079;28;20030;-60
2021/10/10 06:04:24;;;;;;;4.93;2.97;;;;;;;20.69;45.00;102643.31;4993568;28;20080;-60
2021/10/10 06:07:00;;;;;;;4.45;2.97;;;;;;;20.73;45.00;102636.00;4993485;28;20033;-60
2021/10/10 06:09:25;;;;;;;5.00;3.33;;;;;;;20.77;44.97;102648.13;4993607;28;20025;-60
2021/10/10 06:11:54;;;;;;;5.15;3.15;;;;;;;20.78;44.67;102645.38;4993181;28;20023;-60
2021/10/10 06:14:28;;;;;;;4.78;3.35;;;;;;;20.80;44.80;102642.63;4993153;28;20521;-59
2021/10/10 06:16:54;;;;;;;5.00;3.38;;;;;;;20.82;44.81;102646.00;4993330;28;20486;-59
2021/10/10 06:19:19;;;;;;;4.85;3.08;;;;;;;20.84;44.63;102647.63;4992848;28;20034;-60
2021/10/10 06:21:45;;;;;;;5.00;3.00;;;;;;;20.88;44.59;102644.78;4993652;28;20026;-60
2021/10/10 06:24:10;;;;;;;5.43;3.25;;;;;;;20.89;44.56;102644.69;4993529;28;20030;-60
2021/10/10 06:26:38;;;;;;;4.80;3.10;;;;;;;20.87;44.38;102643.06;4992822;28;20124;-60
2021/10/10 06:29:03;;;;;;;5.15;3.30;;;;;;;20.82;44.41;102633.63;4993091;28;20294;-60
2021/10/10 06:31:29;;;;;;;4.50;2.97;;;;;;;20.80;44.49;102640.81;4993342;28;20026;-60
2021/10/10 06:33:54;;;;;;;4.85;3.60;;;;;;;20.80;43.24;102639.97;4992800;28;20391;-60
2021/10/10 06:36:20;;;;;;;5.73;3.37;;;;;;;20.84;43.65;102638.84;4992921;28;20042;-59
2021/10/10 06:38:46;;;;;;;5.72;3.20;;;;;;;20.88;43.46;102645.63;4993419;28;20358;-59
2021/10/10 06:41:12;;;;;;;5.40;3.40;;;;;;;20.93;43.45;102663.88;4992147;28;20027;-60
2021/10/10 06:43:37;;;;;;;6.80;3.53;;;;;;;20.95;43.07;102659.31;4993161;28;20112;-62
2021/10/10 06:46:02;;;;;;;5.32;3.08;;;;;;;20.96;43.30;102655.72;4992713;28;20034;-62
2021/10/10 06:48:30;;;;;;;4.50;3.10;;;;;;;21.00;43.40;102654.59;4992448;28;20439;-61
2021/10/10 06:50:56;;;;;;;5.93;3.67;;;;;;;20.99;42.78;102648.41;4993532;28;20113;-60
2021/10/10 06:53:21;;;;;;;5.05;3.30;;;;;;;20.92;43.45;102647.13;4997352;28;20537;-60
2021/10/10 06:55:50;;;;;;;5.30;3.45;;;;;;;20.90;43.25;102632.28;4995239;28;20026;-59
2021/10/10 06:58:16;;;;;;;5.10;3.30;;;;;;;20.97;43.24;102626.47;4993724;28;20600;-61
2021/10/10 07:00:41;;;;;;;4.53;3.17;;;;;;;21.06;42.60;102614.44;4993914;28;20031;-60
2021/10/10 07:03:07;;;;;;;5.60;3.43;;;;;;;21.13;42.79;102618.34;4994233;28;20042;-60
2021/10/10 07:05:32;;;;;;;5.33;3.10;;;;;;;21.20;42.52;102624.97;4994776;28;20272;-60
2021/10/10 07:08:04;;;;;;;5.53;3.15;;;;;;;21.26;42.42;102626.34;4994604;28;20350;-60
2021/10/10 07:10:29;;;;;;;5.00;3.10;;;;;;;21.32;42.30;102623.28;4993628;28;20054;-63
2021/10/10 07:12:54;;;;;;;4.87;3.07;;;;;;;21.34;42.42;102605.47;4993513;28;20078;-60
2021/10/10 07:15:19;;;;;;;5.40;3.20;;;;;;;21.34;42.58;102602.81;4993567;28;20283;-60
2021/10/10 07:17:45;;;;;;;4.60;3.00;;;;;;;21.35;42.34;102607.16;4993823;28;20042;-60
2021/10/10 07:20:19;;;;;;;4.88;2.92;;;;;;;21.36;42.19;102623.91;4993463;28;20026;-60
2021/10/10 07:23:12;;;;;;;4.20;2.70;;;;;;;21.37;42.29;102634.44;4995058;28;20026;-61
2021/10/10 07:25:39;;;;;;;4.60;2.92;;;;;;;21.41;42.26;102647.47;4996182;28;20026;-60
2021/10/10 07:28:04;;;;;;;5.22;3.28;;;;;;;21.43;42.35;102650.88;4998976;28;20034;-60
2021/10/10 07:30:29;;;;;;;4.83;2.93;;;;;;;21.42;42.31;102660.66;4996223;28;20478;-61
2021/10/10 07:32:55;;;;;;;5.00;3.30;;;;;;;21.39;42.39;102655.53;4996781;28;20260;-60
2021/10/10 07:35:20;;;;;;;4.93;3.57;;;;;;;21.40;42.24;102651.09;5000129;28;20493;-60
2021/10/10 07:37:54;;;;;;;5.25;3.22;;;;;;;21.39;42.52;102650.25;5000368;28;20276;-61
2021/10/10 07:40:20;;;;;;;5.82;3.70;;;;;;;21.41;42.61;102655.44;4997552;28;20482;-59
2021/10/10 07:42:45;;;;;;;5.20;3.35;;;;;;;21.41;42.63;102658.94;4996850;28;20034;-61
2021/10/10 07:45:12;;;;;;;5.00;3.20;;;;;;;21.38;42.53;102662.66;4995633;28;20027;-62
2021/10/10 07:47:49;;;;;;;5.40;3.45;;;;;;;21.39;42.73;102655.53;4997413;28;20636;-60
2021/10/10 07:50:19;;;;;;;5.18;3.38;;;;;;;21.49;42.63;102661.09;4998670;28;20046;-57
2021/10/10 07:52:48;;;;;;;5.82;3.58;;;;;;;21.53;42.37;102662.63;4998141;28;20051;-61
2021/10/10 07:55:14;;;;;;;5.93;3.35;;;;;;;21.53;42.49;102655.50;4996457;28;20031;-61
2021/10/10 07:57:40;;;;;;;5.72;3.50;;;;;;;21.51;42.65;102652.09;4996273;28;20121;-61
2021/10/10 08:00:07;;;;;;;6.97;3.72;;;;;;;21.48;42.84;102648.78;4995829;28;20189;-60
2021/10/10 08:02:49;;;;;;;6.00;3.42;;;;;;;21.47;42.78;102653.22;4996496;28;20026;-59
2021/10/10 08:05:14;;;;;;;5.32;3.58;;;;;;;21.44;42.90;102648.13;4995516;28;20049;-60
2021/10/10 08:07:40;;;;;;;5.88;3.67;;;;;;;21.43;42.91;102642.91;4996990;28;20038;-59
2021/10/10 08:10:14;;;;;;;5.27;3.70;;;;;;;21.44;42.80;102642.81;4997407;28;20023;-59
2021/10/10 08:12:39;;;;;;;5.47;3.45;;;;;;;21.46;42.86;102648.00;4996909;28;20057;-62
2021/10/10 08:15:16;;;;;;;6.43;3.17;;;;;;;21.44;42.82;102652.59;4996138;28;20463;-61
2021/10/10 08:17:42;;;;;;;6.18;3.80;;;;;;;21.41;42.65;102664.25;4999679;28;20478;-59
2021/10/10 08:20:09;;;;;;;5.65;3.85;;;;;;;21.43;42.70;102667.66;4995713;28;20108;-60
2021/10/10 08:22:36;;;;;;;6.10;4.07;;;;;;;21.42;42.88;102665.94;4996563;28;20489;-60
2021/10/10 08:25:07;;;;;;;5.90;4.28;;;;;;;21.42;42.83;102665.09;4996631;28;20026;-60
2021/10/10 08:27:35;;;;;;;5.50;3.90;;;;;;;21.41;42.85;102660.75;4995984;28;20033;-60
2021/10/10 08:30:03;;;;;;;5.70;4.00;;;;;;;21.38;42.69;102665.31;4998143;28;20078;-58
2021/10/10 08:32:29;;;;;;;7.60;4.50;;;;;;;21.34;43.05;102670.91;4996783;28;20030;-59
2021/10/10 08:34:56;;;;;;;6.05;4.10;;;;;;;21.32;43.02;102670.19;4999302;28;20034;-58
2021/10/10 08:37:22;;;;;;;6.70;4.40;;;;;;;21.30;43.16;102669.41;4995434;28;20045;-59
2021/10/10 08:39:47;;;;;;;6.00;4.05;;;;;;;21.29;43.15;102673.03;4994568;28;20026;-60
2021/10/10 08:42:14;;;;;;;6.05;4.22;;;;;;;21.27;42.77;102673.13;4996789;28;20034;-60
2021/10/10 08:44:45;;;;;;;5.80;3.60;;;;;;;21.27;43.04;102673.13;4999315;28;20173;-60
2021/10/10 08:47:16;;;;;;;5.97;4.07;;;;;;;21.28;43.08;102669.50;4995771;28;20065;-60
2021/10/10 08:49:42;;;;;;;6.50;4.45;;;;;;;21.30;43.43;102680.00;4995744;28;20097;-61
2021/10/10 08:52:09;;;;;;;5.50;4.10;;;;;;;21.32;43.26;102688.75;4997184;28;20125;-62
2021/10/10 08:54:35;;;;;;;7.10;4.38;;;;;;;21.35;43.41;102686.72;4994827;28;20034;-59
2021/10/10 08:57:01;;;;;;;5.40;3.60;;;;;;;21.44;43.12;102692.38;4996392;28;20109;-60
2021/10/10 08:59:30;;;;;;;5.78;3.67;;;;;;;21.51;43.08;102685.75;4995698;28;20034;-60
2021/10/10 09:01:56;;;;;;;5.47;3.65;;;;;;;21.52;43.24;102690.97;4995194;28;20071;-60
2021/10/10 09:04:21;;;;;;;6.50;4.20;;;;;;;21.55;43.15;102697.84;4995845;28;20073;-60
2021/10/10 09:06:47;;;;;;;5.32;3.88;;;;;;;21.56;43.07;102704.84;4996470;28;20105;-61
2021/10/10 09:09:32;;;;;;;5.68;3.75;;;;;;;21.55;43.10;102703.16;4994448;28;20454;-60
2021/10/10 09:12:09;;;;;;;5.80;4.00;;;;;;;21.54;43.30;102686.38;4995544;28;20034;-61
2021/10/10 09:14:41;;;;;;;6.88;3.95;;;;;;;21.52;43.39;102695.38;4998612;28;20038;-60
2021/10/10 09:17:27;;;;;;;7.10;3.80;;;;;;;21.55;43.33;102698.72;4995994;28;20039;-61
2021/10/10 09:19:59;;;;;;;6.05;4.05;;;;;;;21.59;43.46;102701.13;4996770;28;20125;-59
2021/10/10 09:22:26;;;;;;;6.43;4.30;;;;;;;21.60;43.25;102701.03;4994649;28;20485;-59
2021/10/10 09:24:53;;;;;;;6.50;4.82;;;;;;;21.61;43.28;102696.59;4995848;28;20054;-61
2021/10/10 09:27:28;;;;;;;8.05;4.00;;;;;;;21.58;43.58;102694.13;4995988;28;20045;-59
2021/10/10 09:29:58;;;;;;;6.40;4.60;;;;;;;21.56;43.67;102697.75;4997324;28;20023;-60
2021/10/10 09:32:27;;;;;;;5.85;4.38;;;;;;;21.54;42.80;102688.19;4994780;28;20042;-61
2021/10/10 09:34:52;;;;;;;9.45;7.22;;;;;;;21.39;43.17;102692.66;4994653;28;20037;-60
2021/10/10 09:37:26;;;;;;;6.68;4.95;;;;;;;21.30;43.84;102699.44;4993039;28;20081;-60
2021/10/10 09:40:03;;;;;;;5.97;4.37;;;;;;;21.32;44.09;102700.19;4996204;28;20022;-60
2021/10/10 09:42:38;;;;;;;7.68;5.25;;;;;;;21.37;44.00;102695.44;4995371;28;20295;-60
2021/10/10 09:45:39;;;;;;;8.20;5.15;;;;;;;21.36;44.23;102696.41;4993674;28;20040;-61
2021/10/10 09:48:04;;;;;;;6.75;4.68;;;;;;;21.37;44.23;102697.25;4995687;28;20109;-59
2021/10/10 09:50:35;;;;;;;6.47;4.45;;;;;;;21.37;44.45;102691.94;4994967;28;20517;-59
2021/10/10 09:53:12;;;;;;;7.18;4.55;;;;;;;21.38;44.13;102691.00;4994851;28;20434;-60
2021/10/10 09:55:53;;;;;;;7.68;4.50;;;;;;;21.37;44.37;102686.63;4994479;28;20065;-59
2021/10/10 09:58:38;;;;;;;7.78;4.40;;;;;;;21.36;44.59;102685.78;4994091;28;20493;-59
2021/10/10 10:01:12;;;;;;;7.35;4.60;;;;;;;21.43;44.34;102680.91;4994431;28;20038;-59
2021/10/10 10:03:54;;;;;;;8.50;4.70;;;;;;;21.46;44.25;102679.84;4994219;28;20027;-60
2021/10/10 10:06:19;;;;;;;7.93;4.97;;;;;;;21.50;44.25;102676.91;4993556;28;20034;-59
2021/10/10 10:08:45;;;;;;;7.18;5.05;;;;;;;21.55;44.13;102676.63;4994459;28;20045;-60
2021/10/10 10:11:19;;;;;;;6.63;5.10;;;;;;;21.60;44.16;102679.81;4994974;28;20041;-59
2021/10/10 10:13:44;;;;;;;8.35;5.22;;;;;;;21.66;43.90;102675.91;4994482;28;20022;-59
2021/10/10 10:16:13;;;;;;;7.20;5.22;;;;;;;21.69;43.94;102665.06;4994346;28;20038;-58
2021/10/10 10:18:40;;;;;;;6.88;5.03;;;;;;;21.72;43.83;102656.91;4994141;28;20385;-59
2021/10/10 10:21:07;;;;;;;7.25;4.88;;;;;;;21.71;43.99;102653.41;4994414;28;20050;-60
2021/10/10 10:23:34;;;;;;;8.10;4.95;;;;;;;21.69;43.89;102651.81;4994111;28;20042;-61
2021/10/10 10:26:01;;;;;;;8.05;4.55;;;;;;;21.67;43.93;102646.59;4994810;28;20030;-60
2021/10/10 10:28:32;;;;;;;7.75;4.82;;;;;;;21.65;44.14;102650.31;4993631;28;20184;-61
2021/10/10 10:31:00;;;;;;;7.32;4.57;;;;;;;21.65;44.23;102647.66;4993621;28;20439;-59
2021/10/10 10:33:29;;;;;;;7.05;4.60;;;;;;;21.61;44.54;102660.28;4992511;28;20485;-58
2021/10/10 10:35:54;;;;;;;6.63;4.55;;;;;;;21.56;44.54;102659.75;4993463;28;20031;-59
2021/10/10 10:38:46;;;;;;;6.30;4.32;;;;;;;21.52;44.69;102672.38;4993327;28;20390;-61
2021/10/10 10:41:48;;;;;;;7.50;4.75;;;;;;;21.48;44.98;102683.28;4992167;28;20439;-64
2021/10/10 10:44:48;;;;;;;6.53;4.70;;;;;;;21.44;44.94;102687.06;4991181;28;20057;-62
2021/10/10 10:47:16;;;;;;;7.45;4.72;;;;;;;21.44;44.99;102692.38;4970475;28;20115;-60
2021/10/10 10:49:45;;;;;;;9.15;6.47;;;;;;;21.40;44.85;102674.97;4992923;28;20030;-61
2021/10/10 10:52:33;;;;;;;9.30;5.90;;;;;;;21.39;45.04;102663.50;4992865;28;20112;-62
2021/10/10 10:55:22;;;;;;;8.40;5.78;;;;;;;21.41;45.11;102658.09;4992348;28;20042;-61
2021/10/10 10:58:01;;;;;;;9.77;5.20;;;;;;;21.47;44.92;102676.25;4994453;28;20036;-62
2021/10/10 11:00:35;;;;;;;7.88;5.20;;;;;;;21.49;44.88;102677.03;4992890;28;20042;-62
2021/10/10 11:03:22;;;;;;;8.20;4.80;;;;;;;21.59;44.78;102683.44;4993604;28;20054;-62
2021/10/10 11:05:58;;;;;;;7.68;4.82;;;;;;;21.66;44.96;102679.38;4994952;28;20035;-62
2021/10/10 11:08:25;;;;;;;8.00;5.13;;;;;;;21.71;44.74;102679.94;4992734;28;20034;-61
2021/10/10 11:10:59;;;;;;;8.35;5.22;;;;;;;21.75;44.74;102685.88;4993535;28;20030;-63
2021/10/10 11:13:26;;;;;;;6.88;4.80;;;;;;;21.71;44.76;102666.69;4994518;28;20477;-61
2021/10/10 11:15:55;;;;;;;6.25;4.55;;;;;;;21.81;44.52;102679.31;4993505;28;20038;-63
2021/10/10 11:18:22;;;;;;;7.90;4.70;;;;;;;21.84;44.66;102673.78;4993261;28;20065;-65
2021/10/10 11:20:56;;;;;;;9.70;4.97;;;;;;;21.80;44.94;102675.81;4992982;28;20036;-63
2021/10/10 11:23:23;;;;;;;;;;;;;;;21.80;44.78;102677.63;4992117;28;20474;-64
2021/10/10 11:25:50;;;;;;;6.72;4.38;;;;;;;21.79;44.89;102673.25;4993171;28;19965;-61
2021/10/10 11:28:45;;;;;;;7.25;4.95;;;;;;;21.76;45.11;102669.00;4992597;28;20054;-61
2021/10/10 11:31:14;;;;;;;7.88;4.43;;;;;;;21.74;44.84;102663.78;4991976;28;20133;-60